Abraham Lincoln Capital Airport Springfield US
ICAO: KSPI
IATA: SPI
Category: Large
Scheduled Services: Yes

Elevation: 598 ft
TransAlt. 18000 ft.

Airport Communications:
SPRINGFIELD APP/DEP:118.6
ATIS:127.65
CLNC DEL:121.7
CTAF:121.3
GND:121.9
ANG OPS:27.217
ST LOUIS RDO:122.25
SPRINGFIELD TWR:121.3
UNICOM:131.42

KSPI Zoom In..

If you have problems with the map follow the link
https://www.worldairports.se/pages/airport.php?
ICAO=KSPI

Runways:

(A) RW 04 length 8001 ft width 150 ft
ILS 109.50 / hdg 43

(B) RW 13 length 7400 ft width 150 ft
---- / hdg 128

(C) RW 18 length 5300 ft width 150 ft
---- / hdg 182

(D) RW 22 length 8001 ft width 150 ft
ILS 111.70 / hdg 223

(E) RW 31 length 7400 ft width 150 ft
ILS 110.15 / hdg 308

(F) RW 36 length 5300 ft width 150 ft
---- / hdg 2

Location; KSPI
Day. 06 / Time. 01.52 Zulu
* Altimeter: 29.96
* Temperature: 09° c. 48.2°f.
* Wind from: 170° Speed 09 kn.
Dewpoint: 03° c.
Visibility: 10 Statute Miles.
Clouds: Overcast 12000 ft.

KSPI 060152Z 17009KT 10SM OVC120 09/03 A2996 RMK AO2 SLP149 T00940028


Wind From 170°
Speed 09 kn.

 
 
jpsmedia worldairports.se 2019   terms of use